createdAt,value
2024-02-06T00:01:33.441Z,101875.75
2024-02-06T00:04:18.143Z,101869.00
2024-02-06T00:06:48.015Z,101876.56
2024-02-06T00:09:19.403Z,101864.22
2024-02-06T00:11:49.205Z,101868.16
2024-02-06T00:14:19.012Z,101867.34
2024-02-06T00:16:50.578Z,101870.66
2024-02-06T00:19:21.270Z,101868.16
2024-02-06T00:21:51.346Z,101869.00
2024-02-06T00:24:23.464Z,101860.94
2024-02-06T00:26:53.101Z,101865.69
2024-02-06T00:29:27.452Z,101867.34
2024-02-06T00:31:57.336Z,101867.69
2024-02-06T00:34:27.331Z,101870.47
2024-02-06T00:36:57.374Z,101869.63
2024-02-06T00:39:28.681Z,101869.97
2024-02-06T00:41:58.491Z,101868.31
2024-02-06T00:44:28.513Z,101875.84
2024-02-06T00:46:58.664Z,101877.31
2024-02-06T00:49:28.958Z,101877.31
2024-02-06T00:51:58.817Z,101879.31
2024-02-06T00:54:39.272Z,101870.59
2024-02-06T00:57:09.140Z,101888.53
2024-02-06T00:59:38.822Z,101885.72
2024-02-06T01:02:09.275Z,101882.91
2024-02-06T01:04:39.213Z,101872.88
2024-02-06T01:07:08.964Z,101883.25
2024-02-06T01:09:41.216Z,101877.97
2024-02-06T01:12:11.493Z,101876.31
2024-02-06T01:14:41.499Z,101873.00
2024-02-06T01:17:11.480Z,101874.97
2024-02-06T01:19:41.540Z,101875.28
2024-02-06T01:22:11.250Z,101883.69
2024-02-06T01:24:42.478Z,101878.09
2024-02-06T01:27:12.702Z,101876.44
2024-02-06T01:29:42.519Z,101878.72
2024-02-06T01:32:12.514Z,101870.63
2024-02-06T01:34:51.426Z,101871.78
2024-02-06T01:37:22.046Z,101881.63
2024-02-06T01:39:53.837Z,101874.38
2024-02-06T01:42:23.879Z,101877.50
2024-02-06T01:44:53.637Z,101876.16
2024-02-06T01:47:23.806Z,101874.50
2024-02-06T01:49:54.095Z,101878.47
2024-02-06T01:52:24.406Z,101884.34
2024-02-06T01:54:55.939Z,101881.56
2024-02-06T01:57:26.128Z,101875.41
2024-02-06T01:59:56.551Z,101881.00
2024-02-06T02:02:26.533Z,101877.38
2024-02-06T02:04:56.353Z,101874.06
2024-02-06T02:07:28.744Z,101877.19
2024-02-06T02:10:00.534Z,101875.53
2024-02-06T02:12:30.674Z,101871.41
2024-02-06T02:15:00.657Z,101871.69
2024-02-06T02:17:30.637Z,101865.63
2024-02-06T02:20:00.705Z,101879.91
2024-02-06T02:22:32.346Z,101877.41
2024-02-06T02:25:02.503Z,101882.50
2024-02-06T02:27:32.720Z,101886.75
2024-02-06T02:30:05.072Z,101885.09
2024-02-06T02:32:36.590Z,101888.22
2024-02-06T02:35:07.173Z,101880.97
2024-02-06T02:37:38.588Z,101890.50
2024-02-06T02:40:10.978Z,101891.09
2024-02-06T02:42:40.780Z,101898.16
2024-02-06T02:45:11.432Z,101898.44
2024-02-06T02:47:41.212Z,101893.50
2024-02-06T02:50:11.980Z,101895.78
2024-02-06T02:52:43.363Z,101900.03
2024-02-06T02:55:13.258Z,101891.94
2024-02-06T02:57:43.112Z,101893.06
2024-02-06T03:00:14.254Z,101893.41
2024-02-06T03:02:44.169Z,101894.53
2024-02-06T03:05:14.320Z,101900.44
2024-02-06T03:07:45.908Z,101906.38
2024-02-06T03:10:14.724Z,101915.03
2024-02-06T03:12:44.596Z,101918.16
2024-02-06T03:15:14.704Z,101924.03
2024-02-06T03:17:44.433Z,101923.53
2024-02-06T03:20:15.037Z,101923.81
2024-02-06T03:22:46.493Z,101920.53
2024-02-06T03:25:16.505Z,101923.94
2024-02-06T03:27:47.284Z,101927.06
2024-02-06T03:30:17.826Z,101929.00
2024-02-06T03:32:48.608Z,101936.88
2024-02-06T03:35:18.700Z,101939.13
2024-02-06T03:37:50.083Z,101940.31
2024-02-06T03:40:19.838Z,101948.97
2024-02-06T03:42:49.705Z,101945.66
2024-02-06T03:45:19.484Z,101942.38
2024-02-06T03:47:49.401Z,101947.44
2024-02-06T03:50:19.369Z,101946.09
2024-02-06T03:52:50.608Z,101951.16
2024-02-06T03:55:20.546Z,101950.59
2024-02-06T03:57:51.109Z,101937.22
2024-02-06T04:00:21.337Z,101947.88
2024-02-06T04:02:51.207Z,101943.44
2024-02-06T04:05:21.060Z,101956.56
2024-02-06T04:07:53.093Z,101954.09
2024-02-06T04:10:25.767Z,101952.44
2024-02-06T04:12:55.577Z,101954.69
2024-02-06T04:15:25.346Z,101959.47
2024-02-06T04:17:55.323Z,101964.22
2024-02-06T04:20:25.145Z,101974.56
2024-02-06T04:22:56.488Z,101970.66
2024-02-06T04:25:26.356Z,101987.69
2024-02-06T04:27:56.527Z,101984.41
2024-02-06T04:30:26.535Z,101998.03
2024-02-06T04:32:57.191Z,101994.94
2024-02-06T04:35:27.015Z,101987.41
2024-02-06T04:37:58.320Z,101989.06
2024-02-06T04:40:28.039Z,101988.22
2024-02-06T04:42:58.248Z,101993.47
2024-02-06T04:45:28.638Z,101993.47
2024-02-06T04:47:58.374Z,101997.44
2024-02-06T04:50:28.181Z,101990.19
2024-02-06T04:53:04.948Z,101997.72
2024-02-06T04:55:37.825Z,102003.63
2024-02-06T04:58:16.851Z,102001.97
2024-02-06T05:00:46.768Z,102003.09
2024-02-06T05:03:16.557Z,102000.63
2024-02-06T05:05:46.569Z,102005.38
2024-02-06T05:08:17.906Z,102001.75
2024-02-06T05:10:48.897Z,102011.25
2024-02-06T05:13:19.099Z,101996.78
2024-02-06T05:15:48.947Z,101997.91
2024-02-06T05:18:18.919Z,102006.28
2024-02-06T05:20:48.665Z,102007.41
2024-02-06T05:23:20.692Z,102003.47
2024-02-06T05:25:50.577Z,102007.63
2024-02-06T05:28:23.285Z,102015.41
2024-02-06T05:30:57.707Z,102014.47
2024-02-06T05:33:27.815Z,102014.41
2024-02-06T05:35:57.775Z,102019.63
2024-02-06T05:38:30.062Z,102020.06
2024-02-06T05:41:02.648Z,102015.75
2024-02-06T05:43:32.644Z,102023.41
2024-02-06T05:46:02.584Z,102025.19
2024-02-06T05:48:32.547Z,102041.88
2024-02-06T05:51:03.307Z,102033.09
2024-02-06T05:53:35.329Z,102042.22
2024-02-06T05:56:08.578Z,102039.28
2024-02-06T05:58:41.596Z,102046.44
2024-02-06T06:01:11.806Z,102052.75
2024-02-06T06:03:41.720Z,102057.13
2024-02-06T06:06:11.792Z,102053.94
2024-02-06T06:08:43.360Z,102054.03
2024-02-06T06:11:13.075Z,102057.56
2024-02-06T06:13:42.930Z,102060.47
2024-02-06T06:16:12.840Z,102062.88
2024-02-06T06:18:42.797Z,102060.78
2024-02-06T06:21:12.556Z,102053.41
2024-02-06T06:23:43.916Z,102060.84
2024-02-06T06:26:13.622Z,102061.91
2024-02-06T06:28:43.405Z,102057.84
2024-02-06T06:31:13.674Z,102056.59
2024-02-06T06:33:43.933Z,102050.88
2024-02-06T06:36:15.623Z,102058.53
2024-02-06T06:38:47.087Z,102056.66
2024-02-06T06:41:16.831Z,102055.41
2024-02-06T06:43:47.080Z,102051.53
2024-02-06T06:46:17.080Z,102050.78
2024-02-06T06:48:47.094Z,102054.78
2024-02-06T06:51:16.944Z,102052.06
2024-02-06T06:53:48.200Z,102054.09
2024-02-06T06:56:21.750Z,102049.38
2024-02-06T06:59:00.526Z,102046.63
2024-02-06T07:01:30.265Z,102042.53
2024-02-06T07:04:00.956Z,102047.09
2024-02-06T07:06:30.748Z,102038.22
2024-02-06T07:09:02.013Z,102037.44
2024-02-06T07:11:31.686Z,102045.03
2024-02-06T07:14:01.714Z,102043.75
2024-02-06T07:16:37.041Z,102044.94
2024-02-06T07:19:07.948Z,102054.03
2024-02-06T07:21:37.726Z,102056.91
2024-02-06T07:24:09.938Z,102053.59
2024-02-06T07:26:40.495Z,102055.66
2024-02-06T07:29:10.305Z,102061.59
2024-02-06T07:31:40.078Z,102056.34
2024-02-06T07:34:10.270Z,102046.28
2024-02-06T07:36:40.640Z,102059.00
2024-02-06T07:39:12.560Z,102057.38
2024-02-06T07:41:42.357Z,102056.06
2024-02-06T07:44:13.683Z,102064.50
2024-02-06T07:46:43.647Z,102060.38
2024-02-06T07:49:14.067Z,102063.19
2024-02-06T07:51:44.058Z,102065.19
2024-02-06T07:54:15.699Z,102063.56
2024-02-06T07:56:46.021Z,102057.94
2024-02-06T07:59:17.582Z,102059.91
2024-02-06T08:01:50.305Z,102065.03
2024-02-06T08:04:20.479Z,102063.34
2024-02-06T08:06:50.289Z,102069.81
2024-02-06T08:09:21.983Z,102072.09
2024-02-06T08:11:52.502Z,102076.06
2024-02-06T08:14:22.403Z,102072.78
2024-02-06T08:17:00.874Z,102069.13
2024-02-06T08:19:32.414Z,102075.38
2024-02-06T08:22:02.741Z,102077.69
2024-02-06T08:24:35.459Z,102074.38
2024-02-06T08:27:05.733Z,102071.03
2024-02-06T08:29:35.751Z,102066.19
2024-02-06T08:32:16.743Z,102067.28
2024-02-06T08:34:47.289Z,102073.25
2024-02-06T08:37:17.297Z,102065.94
2024-02-06T08:39:48.667Z,102067.06
2024-02-06T08:42:18.743Z,102058.06
2024-02-06T08:44:48.733Z,102064.84
2024-02-06T08:47:18.687Z,102053.84
2024-02-06T08:49:48.499Z,102054.47
2024-02-06T08:52:18.561Z,102054.75
2024-02-06T08:54:53.657Z,102051.75
2024-02-06T08:57:23.760Z,102049.88
2024-02-06T08:59:54.189Z,102063.28
2024-02-06T09:02:26.616Z,102058.94
2024-02-06T09:04:56.989Z,102066.22
2024-02-06T09:07:27.827Z,102066.22
2024-02-06T09:10:01.587Z,102065.44
2024-02-06T09:12:31.520Z,102061.31
2024-02-06T09:15:02.767Z,102063.63
2024-02-06T09:17:33.686Z,102061.50
2024-02-06T09:20:04.530Z,102053.72
2024-02-06T09:22:34.689Z,102063.69
2024-02-06T09:25:13.571Z,102058.72
2024-02-06T09:27:47.819Z,102052.13
2024-02-06T09:30:20.108Z,102051.66
2024-02-06T09:32:50.054Z,102062.44
2024-02-06T09:35:20.209Z,102059.13
2024-02-06T09:37:50.109Z,102057.00
2024-02-06T09:40:21.453Z,102054.19
2024-02-06T09:42:52.821Z,102054.50
2024-02-06T09:45:22.729Z,102053.69
2024-02-06T09:47:52.757Z,102049.59
2024-02-06T09:50:22.540Z,102054.38
2024-02-06T09:52:53.447Z,102055.88
2024-02-06T09:55:28.313Z,102059.88
2024-02-06T09:57:59.863Z,102059.38
2024-02-06T10:00:30.927Z,102060.88
2024-02-06T10:03:02.991Z,102052.31
2024-02-06T10:05:44.294Z,102053.47
2024-02-06T10:08:16.347Z,102050.84
2024-02-06T10:10:51.379Z,102045.53
2024-02-06T10:13:22.694Z,102049.03
2024-02-06T10:15:52.737Z,102050.53
2024-02-06T10:18:23.197Z,102045.22
2024-02-06T10:20:55.856Z,102047.91
2024-02-06T10:23:25.903Z,102043.78
2024-02-06T10:26:06.581Z,102041.28
2024-02-06T10:28:36.378Z,102042.78
2024-02-06T10:31:12.980Z,102030.22
2024-02-06T10:33:43.840Z,102031.69
2024-02-06T10:36:13.940Z,102040.50
2024-02-06T10:38:44.756Z,102032.41
2024-02-06T10:41:26.417Z,102027.94
2024-02-06T10:44:13.081Z,102015.38
2024-02-06T10:46:46.759Z,102025.78
2024-02-06T10:49:16.873Z,102032.25
2024-02-06T10:51:47.207Z,102024.97
2024-02-06T10:54:21.509Z,102010.06
2024-02-06T10:57:05.026Z,102020.16
2024-02-06T10:59:42.098Z,102022.81
2024-02-06T11:02:26.466Z,102018.34
2024-02-06T11:05:12.876Z,102021.53
2024-02-06T11:07:53.395Z,102015.03
2024-02-06T11:10:35.686Z,102017.41
2024-02-06T11:13:10.442Z,102012.94
2024-02-06T11:15:44.738Z,102012.44
2024-02-06T11:18:24.650Z,102011.59
2024-02-06T11:21:00.321Z,102011.13
2024-02-06T11:23:33.415Z,102008.63
2024-02-06T11:26:05.528Z,102004.50
2024-02-06T11:28:37.140Z,102001.69
2024-02-06T11:31:08.928Z,102005.66
2024-02-06T11:33:39.662Z,102007.69
2024-02-06T11:36:14.212Z,102006.50
2024-02-06T11:38:44.593Z,102001.19
2024-02-06T11:41:17.522Z,102003.22
2024-02-06T11:43:52.902Z,102008.84
2024-02-06T11:46:25.055Z,102010.00
2024-02-06T11:48:55.212Z,101995.06
2024-02-06T11:51:28.684Z,101998.25
2024-02-06T11:53:58.746Z,102005.88
2024-02-06T11:56:28.875Z,102005.03
2024-02-06T11:59:00.473Z,102005.03
2024-02-06T12:01:34.215Z,102005.38
2024-02-06T12:04:07.512Z,102011.31
2024-02-06T12:06:37.823Z,102002.88
2024-02-06T12:09:10.677Z,102009.69
2024-02-06T12:11:47.270Z,102006.03
2024-02-06T12:14:19.309Z,102007.19
2024-02-06T12:16:50.138Z,102007.56
2024-02-06T12:19:20.891Z,102017.97
2024-02-06T12:21:51.079Z,102005.06
2024-02-06T12:24:22.176Z,102004.25
2024-02-06T12:26:52.860Z,102007.06
2024-02-06T12:29:24.941Z,102010.69
2024-02-06T12:31:56.962Z,102004.59
2024-02-06T12:34:27.932Z,102000.94
2024-02-06T12:36:59.271Z,102000.94
2024-02-06T12:39:32.031Z,102002.94
2024-02-06T12:42:03.830Z,102001.28
2024-02-06T12:44:45.490Z,101999.28
2024-02-06T12:47:21.809Z,102002.44
2024-02-06T12:49:52.086Z,101998.81
2024-02-06T12:52:24.986Z,102007.56
2024-02-06T12:54:56.938Z,102003.09
2024-02-06T12:57:27.851Z,102003.44
2024-02-06T12:59:59.372Z,101994.19
2024-02-06T13:02:29.327Z,102007.41
2024-02-06T13:05:08.541Z,102003.25
2024-02-06T13:07:38.770Z,102013.69
2024-02-06T13:10:11.285Z,102004.44
2024-02-06T13:12:41.710Z,101999.97
2024-02-06T13:15:20.170Z,101997.13
2024-02-06T13:17:51.076Z,102001.13
2024-02-06T13:20:21.587Z,101997.50
2024-02-06T13:22:51.449Z,102001.47
2024-02-06T13:25:22.430Z,101999.47
2024-02-06T13:27:54.519Z,101998.97
2024-02-06T13:30:26.224Z,102005.78
2024-02-06T13:32:56.330Z,102003.28
2024-02-06T13:35:29.425Z,102000.47
2024-02-06T13:38:02.550Z,102001.97
2024-02-06T13:40:34.928Z,101996.69
2024-02-06T13:43:04.676Z,102001.47
2024-02-06T13:45:36.162Z,102008.25
2024-02-06T13:48:06.551Z,102007.44
2024-02-06T13:50:36.840Z,102002.13
2024-02-06T13:53:07.166Z,101998.50
2024-02-06T13:55:37.163Z,101997.69
2024-02-06T13:58:09.021Z,101999.66
2024-02-06T14:00:41.491Z,101998.84
2024-02-06T14:03:12.814Z,101994.38
2024-02-06T14:05:45.940Z,101997.19
2024-02-06T14:08:15.860Z,101998.34
2024-02-06T14:10:45.779Z,102005.94
2024-02-06T14:13:15.702Z,101999.88
2024-02-06T14:15:46.906Z,102001.84
2024-02-06T14:18:16.997Z,102000.19
2024-02-06T14:20:47.036Z,102007.81
2024-02-06T14:23:17.516Z,102001.34
2024-02-06T14:25:47.781Z,101997.72
2024-02-06T14:28:18.700Z,101998.88
2024-02-06T14:30:55.200Z,102002.03
2024-02-06T14:33:25.890Z,102006.31
2024-02-06T14:35:56.712Z,102003.84
2024-02-06T14:38:26.683Z,102011.47
2024-02-06T14:40:56.781Z,102012.63
2024-02-06T14:43:26.850Z,102016.59
2024-02-06T14:45:58.300Z,102006.50
2024-02-06T14:48:28.649Z,102011.28
2024-02-06T14:50:58.521Z,102017.25
2024-02-06T14:53:28.652Z,102016.44
2024-02-06T14:55:58.519Z,102011.97
2024-02-06T14:58:28.410Z,102012.28
2024-02-06T15:01:01.786Z,102021.91
2024-02-06T15:03:32.329Z,102019.41
2024-02-06T15:06:02.662Z,102023.38
2024-02-06T15:08:32.647Z,102021.72
2024-02-06T15:11:02.602Z,102018.44
2024-02-06T15:13:32.643Z,102016.78
2024-02-06T15:16:05.273Z,102024.72
2024-02-06T15:18:35.603Z,102027.00
2024-02-06T15:21:05.972Z,102028.50
2024-02-06T15:23:35.843Z,102030.81
2024-02-06T15:26:06.545Z,102033.97
2024-02-06T15:28:36.372Z,102043.06
2024-02-06T15:31:09.012Z,102045.38
2024-02-06T15:33:39.352Z,102042.03
2024-02-06T15:36:10.061Z,102049.13
2024-02-06T15:38:39.885Z,102036.56
2024-02-06T15:41:09.819Z,102034.41
2024-02-06T15:43:39.799Z,102041.19
2024-02-06T15:46:11.303Z,102037.91
2024-02-06T15:48:46.296Z,102047.81
2024-02-06T15:51:17.588Z,102040.06
2024-02-06T15:53:47.474Z,102037.91
2024-02-06T15:56:18.022Z,102037.38
2024-02-06T15:58:48.560Z,102045.31
2024-02-06T16:01:20.349Z,102050.47
2024-02-06T16:03:50.925Z,102057.22
2024-02-06T16:06:21.423Z,102065.16
2024-02-06T16:08:51.399Z,102066.66
2024-02-06T16:11:21.662Z,102072.91
2024-02-06T16:13:51.532Z,102077.69
2024-02-06T16:16:22.885Z,102068.78
2024-02-06T16:18:53.827Z,102078.66
2024-02-06T16:21:23.668Z,102085.75
2024-02-06T16:23:54.362Z,102083.31
2024-02-06T16:26:24.351Z,102087.59
2024-02-06T16:28:54.577Z,102101.94
2024-02-06T16:31:25.917Z,102095.00
2024-02-06T16:33:56.099Z,102103.75
2024-02-06T16:36:25.947Z,102099.59
2024-02-06T16:39:00.178Z,102104.75
2024-02-06T16:41:34.780Z,102103.09
2024-02-06T16:44:05.300Z,102108.53
2024-02-06T16:46:37.991Z,102111.63
2024-02-06T16:49:09.096Z,102124.00
2024-02-06T16:51:38.980Z,102106.66
2024-02-06T16:54:09.079Z,102120.22
2024-02-06T16:56:39.051Z,102116.56
2024-02-06T16:59:09.929Z,102116.06
2024-02-06T17:01:45.114Z,102124.78
2024-02-06T17:04:15.225Z,102121.47
2024-02-06T17:06:45.164Z,102135.00
2024-02-06T17:09:15.172Z,102136.16
2024-02-06T17:11:50.323Z,102134.50
2024-02-06T17:14:20.149Z,102130.34
2024-02-06T17:16:52.068Z,102134.34
2024-02-06T17:19:22.369Z,102133.81
2024-02-06T17:21:53.081Z,102134.63
2024-02-06T17:24:22.979Z,102135.28
2024-02-06T17:26:52.989Z,102132.78
2024-02-06T17:29:22.832Z,102139.56
2024-02-06T17:31:54.226Z,102137.91
2024-02-06T17:34:24.210Z,102140.22
2024-02-06T17:36:54.293Z,102137.72
2024-02-06T17:39:24.659Z,102137.19
2024-02-06T17:41:55.151Z,102136.38
2024-02-06T17:44:25.239Z,102128.59
2024-02-06T17:46:58.405Z,102134.22
2024-02-06T17:49:29.326Z,102133.72
2024-02-06T17:51:59.439Z,102145.25
2024-02-06T17:54:29.283Z,102139.97
2024-02-06T17:56:59.356Z,102137.47
2024-02-06T17:59:29.445Z,102144.28
2024-02-06T18:02:01.067Z,102149.03
2024-02-06T18:04:31.932Z,102147.38
2024-02-06T18:07:02.015Z,102148.50
2024-02-06T18:09:33.508Z,102153.31
2024-02-06T18:12:03.436Z,102146.84
2024-02-06T18:14:35.356Z,102154.47
2024-02-06T18:17:22.485Z,102150.81
2024-02-06T18:19:57.828Z,102158.75
2024-02-06T18:22:28.730Z,102154.28
2024-02-06T18:24:58.859Z,102161.84
2024-02-06T18:27:28.608Z,102166.66
2024-02-06T18:29:58.591Z,102164.66
2024-02-06T18:32:30.478Z,102162.19
2024-02-06T18:35:00.821Z,102158.34
2024-02-06T18:37:30.766Z,102164.28
2024-02-06T18:40:00.512Z,102162.09
2024-02-06T18:42:30.629Z,102168.06
2024-02-06T18:45:00.608Z,102166.72
2024-02-06T18:47:32.662Z,102169.00
2024-02-06T18:50:02.952Z,102173.28
2024-02-06T18:52:32.434Z,102171.91
2024-02-06T18:55:06.851Z,102171.91
2024-02-06T18:57:36.431Z,102176.19
2024-02-06T19:00:14.870Z,102167.78
2024-02-06T19:02:54.964Z,102179.34
2024-02-06T19:05:27.176Z,102171.50
2024-02-06T19:07:56.944Z,102172.66
2024-02-06T19:10:26.687Z,102175.78
2024-02-06T19:12:59.008Z,102170.50
2024-02-06T19:15:28.644Z,102178.06
2024-02-06T19:18:00.224Z,102175.59
2024-02-06T19:20:40.292Z,102167.47
2024-02-06T19:23:10.293Z,102169.47
2024-02-06T19:25:40.061Z,102172.59
2024-02-06T19:28:09.540Z,102174.56
2024-02-06T19:30:42.757Z,102174.88
2024-02-06T19:33:23.370Z,102170.44
2024-02-06T19:35:53.228Z,102174.69
2024-02-06T19:38:23.321Z,102179.47
2024-02-06T19:40:53.388Z,102175.84
2024-02-06T19:43:23.482Z,102178.94
2024-02-06T19:45:53.911Z,102173.34
2024-02-06T19:48:27.482Z,102172.53
2024-02-06T19:50:58.340Z,102161.63
2024-02-06T19:53:31.076Z,102172.34
2024-02-06T19:56:01.223Z,102165.38
2024-02-06T19:58:30.879Z,102166.81
2024-02-06T20:01:01.228Z,102165.16
2024-02-06T20:03:58.980Z,102169.13
2024-02-06T20:06:28.867Z,102166.97
2024-02-06T20:09:02.641Z,102164.47
2024-02-06T20:11:34.229Z,102168.44
2024-02-06T20:14:04.140Z,102172.03
2024-02-06T20:16:34.160Z,102168.72
2024-02-06T20:19:06.050Z,102177.13
2024-02-06T20:21:36.067Z,102176.31
2024-02-06T20:24:08.170Z,102171.00
2024-02-06T20:26:38.393Z,102167.91
2024-02-06T20:29:08.367Z,102165.09
2024-02-06T20:31:38.359Z,102167.91
2024-02-06T20:34:10.586Z,102164.78
2024-02-06T20:36:44.677Z,102170.09
2024-02-06T20:39:20.396Z,102168.09
2024-02-06T20:41:51.033Z,102161.69
2024-02-06T20:44:30.553Z,102160.50
2024-02-06T20:47:00.715Z,102164.78
2024-02-06T20:49:32.743Z,102154.19
2024-02-06T20:52:02.793Z,102160.66
2024-02-06T20:54:32.870Z,102169.38
2024-02-06T20:57:02.521Z,102167.19
2024-02-06T20:59:34.722Z,102171.13
2024-02-06T21:02:05.462Z,102164.19
2024-02-06T21:04:38.266Z,102156.94
2024-02-06T21:07:15.318Z,102162.03
2024-02-06T21:09:46.179Z,102155.06
2024-02-06T21:12:22.681Z,102166.59
2024-02-06T21:14:52.794Z,102168.88
2024-02-06T21:17:41.381Z,102171.69
2024-02-06T21:20:17.141Z,102162.78
2024-02-06T21:22:47.768Z,102176.25
2024-02-06T21:25:18.714Z,102165.91
2024-02-06T21:27:51.422Z,102174.59
2024-02-06T21:30:22.045Z,102164.53
2024-02-06T21:32:51.794Z,102172.13
2024-02-06T21:35:23.534Z,102170.97
2024-02-06T21:37:54.002Z,102184.13
2024-02-06T21:40:27.270Z,102173.78
2024-02-06T21:42:57.266Z,102173.44
2024-02-06T21:45:30.119Z,102171.50
2024-02-06T21:47:59.946Z,102173.13
2024-02-06T21:50:32.080Z,102170.66
2024-02-06T21:53:01.840Z,102172.63
2024-02-06T21:55:36.657Z,102170.13
2024-02-06T21:58:27.381Z,102172.72
2024-02-06T22:00:57.575Z,102175.84
2024-02-06T22:03:27.224Z,102163.81
2024-02-06T22:05:58.871Z,102161.66
2024-02-06T22:08:31.572Z,102162.78
2024-02-06T22:11:07.444Z,102157.81
2024-02-06T22:13:50.909Z,102165.41
2024-02-06T22:16:21.601Z,102169.91
2024-02-06T22:18:52.752Z,102163.50
2024-02-06T22:21:25.659Z,102157.38
2024-02-06T22:23:56.094Z,102161.66
2024-02-06T22:26:26.297Z,102153.53
2024-02-06T22:28:56.962Z,102148.25
2024-02-06T22:31:27.016Z,102149.41
2024-02-06T22:33:56.824Z,102148.88
2024-02-06T22:36:28.850Z,102143.59
2024-02-06T22:39:01.187Z,102149.50
2024-02-06T22:41:31.119Z,102144.22
2024-02-06T22:44:10.963Z,102153.75
2024-02-06T22:46:41.293Z,102151.56
2024-02-06T22:49:11.591Z,102145.16
2024-02-06T22:51:43.747Z,102142.34
2024-02-06T22:54:13.342Z,102147.44
2024-02-06T22:56:43.078Z,102138.22
2024-02-06T22:59:12.805Z,102138.22
2024-02-06T23:01:48.746Z,102142.97
2024-02-06T23:04:19.888Z,102137.69
2024-02-06T23:06:52.257Z,102137.69
2024-02-06T23:09:23.430Z,102135.22
2024-02-06T23:11:53.183Z,102138.31
2024-02-06T23:14:23.574Z,102134.69
2024-02-06T23:16:53.787Z,102127.44
2024-02-06T23:19:25.297Z,102123.78
2024-02-06T23:21:57.557Z,102120.16
2024-02-06T23:24:27.517Z,102124.09
2024-02-06T23:26:57.508Z,102131.69
2024-02-06T23:29:27.765Z,102124.94
2024-02-06T23:31:57.693Z,102120.50
2024-02-06T23:34:28.516Z,102122.44
2024-02-06T23:37:00.957Z,102110.44
2024-02-06T23:39:30.528Z,102115.19
2024-02-06T23:42:00.365Z,102112.72
2024-02-06T23:44:29.957Z,102116.66
2024-02-06T23:47:00.266Z,102109.38
2024-02-06T23:49:30.549Z,102114.16
2024-02-06T23:52:03.615Z,102104.09
2024-02-06T23:54:33.790Z,102114.47
2024-02-06T23:57:03.953Z,102110.03
2024-02-06T23:59:34.306Z,102109.19
